createdAt,value
2018-09-13T00:00:12.235Z,21.48
2018-09-13T00:02:41.517Z,21.40
2018-09-13T00:05:10.528Z,21.45
2018-09-13T00:07:39.544Z,21.46
2018-09-13T00:10:08.532Z,21.45
2018-09-13T00:12:37.456Z,21.48
2018-09-13T00:15:07.424Z,21.46
2018-09-13T00:17:36.701Z,21.42
2018-09-13T00:20:05.772Z,21.48
2018-09-13T00:22:34.751Z,21.38
2018-09-13T00:25:04.097Z,21.29
2018-09-13T00:27:32.986Z,21.19
2018-09-13T00:30:01.926Z,21.31
2018-09-13T00:32:31.185Z,21.30
2018-09-13T00:35:00.097Z,21.31
2018-09-13T00:37:29.066Z,21.33
2018-09-13T00:39:58.314Z,21.31
2018-09-13T00:42:27.177Z,21.18
2018-09-13T00:44:56.075Z,21.09
2018-09-13T00:47:25.313Z,21.13
2018-09-13T00:49:54.234Z,21.17
2018-09-13T00:52:23.112Z,21.28
2018-09-13T00:54:52.332Z,21.30
2018-09-13T00:57:21.237Z,21.35
2018-09-13T00:59:50.133Z,21.33
2018-09-13T01:02:19.289Z,21.38
2018-09-13T01:04:48.259Z,21.31
2018-09-13T01:07:17.238Z,21.22
2018-09-13T01:09:46.542Z,21.29
2018-09-13T01:12:15.390Z,21.27
2018-09-13T01:14:44.217Z,21.23
2018-09-13T01:17:13.451Z,21.17
2018-09-13T01:19:42.424Z,21.28
2018-09-13T01:22:11.420Z,21.36
2018-09-13T01:24:40.320Z,21.46
2018-09-13T01:27:09.391Z,21.44
2018-09-13T01:29:38.265Z,21.30
2018-09-13T01:32:07.488Z,21.27
2018-09-13T01:34:36.388Z,21.30
2018-09-13T01:37:05.235Z,21.39
2018-09-13T01:39:34.116Z,21.27
2018-09-13T01:42:02.989Z,21.18
2018-09-13T01:44:31.932Z,21.00
2018-09-13T01:47:01.212Z,21.03
2018-09-13T01:49:30.228Z,21.05
2018-09-13T01:51:59.192Z,21.06
2018-09-13T01:54:28.089Z,21.04
2018-09-13T01:56:57.107Z,20.96
2018-09-13T01:59:26.067Z,20.93
2018-09-13T02:01:55.042Z,21.13
2018-09-13T02:04:23.857Z,20.89
2018-09-13T02:06:52.794Z,20.81
2018-09-13T02:09:21.690Z,20.71
2018-09-13T02:11:50.613Z,20.62
2018-09-13T02:14:19.559Z,20.64
2018-09-13T02:16:48.408Z,20.77
2018-09-13T02:19:17.398Z,20.88
2018-09-13T02:21:46.317Z,20.78
2018-09-13T02:24:15.266Z,20.77
2018-09-13T02:26:44.263Z,20.87
2018-09-13T02:29:13.170Z,20.74
2018-09-13T02:31:42.179Z,20.54
2018-09-13T02:34:11.149Z,20.62
2018-09-13T02:36:40.034Z,20.58
2018-09-13T02:39:10.418Z,20.51
2018-09-13T02:41:39.715Z,20.22
2018-09-13T02:46:38.339Z,19.91
2018-09-13T02:49:07.426Z,19.81
2018-09-13T02:51:36.290Z,19.64
2018-09-13T02:54:05.218Z,19.66
2018-09-13T02:56:34.162Z,19.49
2018-09-13T02:59:03.158Z,19.49
2018-09-13T03:01:32.229Z,19.44
2018-09-13T03:04:01.128Z,19.52
2018-09-13T03:06:30.709Z,19.48
2018-09-13T03:08:59.625Z,19.46
2018-09-13T03:11:28.678Z,19.40
2018-09-13T03:13:57.591Z,19.37
2018-09-13T03:16:26.513Z,19.36
2018-09-13T03:18:55.593Z,19.25
2018-09-13T03:21:24.552Z,19.12
2018-09-13T03:23:53.483Z,19.09
2018-09-13T03:26:22.328Z,19.18
2018-09-13T03:28:51.374Z,19.11
2018-09-13T03:31:20.249Z,19.05
2018-09-13T03:33:49.195Z,19.08
2018-09-13T03:36:18.307Z,19.05
2018-09-13T03:38:47.244Z,19.30
2018-09-13T03:41:16.256Z,19.47
2018-09-13T03:43:45.230Z,19.54
2018-09-13T03:46:14.301Z,19.45
2018-09-13T03:48:43.208Z,19.39
2018-09-13T03:51:45.513Z,19.61
2018-09-13T03:54:14.372Z,19.54
2018-09-13T03:56:43.260Z,19.59
2018-09-13T03:59:12.135Z,19.58
2018-09-13T04:01:41.068Z,19.53
2018-09-13T04:04:09.995Z,19.53
2018-09-13T04:06:38.891Z,19.53
2018-09-13T04:09:09.973Z,19.41
2018-09-13T04:11:38.943Z,19.46
2018-09-13T04:14:08.038Z,19.66
2018-09-13T04:16:36.844Z,19.41
2018-09-13T04:19:05.773Z,19.46
2018-09-13T04:21:34.640Z,19.39
2018-09-13T04:24:03.732Z,19.40
2018-09-13T04:26:32.681Z,19.54
2018-09-13T04:29:01.522Z,19.43
2018-09-13T04:31:30.359Z,19.27
2018-09-13T04:33:59.283Z,19.23
2018-09-13T04:36:28.150Z,19.23
2018-09-13T04:38:57.100Z,19.27
2018-09-13T04:41:25.940Z,19.38
2018-09-13T04:43:54.964Z,19.44
2018-09-13T04:46:23.939Z,19.52
2018-09-13T04:48:52.749Z,19.52
2018-09-13T04:51:21.699Z,19.65
2018-09-13T04:53:50.568Z,19.54
2018-09-13T04:56:19.506Z,19.71
2018-09-13T04:58:48.352Z,19.94
2018-09-13T05:01:17.385Z,19.71
2018-09-13T05:03:46.219Z,19.83
2018-09-13T05:06:15.112Z,19.91
2018-09-13T05:08:43.979Z,19.84
2018-09-13T05:11:12.769Z,19.68
2018-09-13T05:13:41.625Z,19.90
2018-09-13T05:16:10.435Z,20.03
2018-09-13T05:18:39.351Z,20.09
2018-09-13T05:21:08.614Z,19.93
2018-09-13T05:23:37.479Z,19.71
2018-09-13T05:26:06.437Z,19.95
2018-09-13T05:28:35.405Z,20.12
2018-09-13T05:31:04.405Z,20.43
2018-09-13T05:33:33.330Z,20.74
2018-09-13T05:36:02.239Z,20.55
2018-09-13T05:38:31.261Z,20.62
2018-09-13T05:41:00.149Z,20.63
2018-09-13T05:43:29.029Z,20.84
2018-09-13T05:45:58.031Z,20.90
2018-09-13T05:48:26.922Z,21.18
2018-09-13T05:50:55.946Z,21.13
2018-09-13T05:53:24.745Z,21.66
2018-09-13T05:55:53.604Z,21.22
2018-09-13T05:58:22.447Z,21.21
2018-09-13T06:00:51.391Z,21.68
2018-09-13T06:03:20.390Z,21.17
2018-09-13T06:05:49.531Z,21.23
2018-09-13T06:08:18.349Z,21.38
2018-09-13T06:10:47.280Z,21.28
2018-09-13T06:13:16.218Z,21.38
2018-09-13T06:15:45.203Z,21.32
2018-09-13T06:18:14.235Z,21.15
2018-09-13T06:20:43.243Z,21.09
2018-09-13T06:23:12.192Z,21.04
2018-09-13T06:25:41.269Z,21.09
2018-09-13T06:28:10.149Z,21.04
2018-09-13T06:30:39.012Z,21.06
2018-09-13T06:33:08.014Z,20.98
2018-09-13T06:35:36.934Z,21.11
2018-09-13T06:38:05.890Z,21.05
2018-09-13T06:40:34.776Z,20.94
2018-09-13T06:43:03.707Z,20.95
2018-09-13T06:45:32.511Z,21.17
2018-09-13T06:48:01.506Z,21.27
2018-09-13T06:50:30.567Z,21.64
2018-09-13T06:52:59.521Z,21.89
2018-09-13T06:55:28.345Z,21.76
2018-09-13T06:57:57.274Z,21.90
2018-09-13T07:00:26.292Z,22.33
2018-09-13T07:02:55.285Z,22.55
2018-09-13T07:05:24.772Z,22.50
2018-09-13T07:07:53.653Z,22.72
2018-09-13T07:10:22.953Z,22.69
2018-09-13T07:12:51.846Z,22.75
2018-09-13T07:15:20.792Z,22.94
2018-09-13T07:17:49.681Z,22.82
2018-09-13T07:20:18.620Z,22.46
2018-09-13T07:22:47.476Z,22.58
2018-09-13T07:25:16.405Z,22.67
2018-09-13T07:27:45.283Z,22.72
2018-09-13T07:30:14.190Z,22.67
2018-09-13T07:32:43.043Z,22.65
2018-09-13T07:35:11.873Z,22.76
2018-09-13T07:37:40.769Z,22.67
2018-09-13T07:40:09.733Z,22.85
2018-09-13T07:42:38.603Z,23.40
2018-09-13T07:45:07.601Z,23.07
2018-09-13T07:47:36.570Z,22.85
2018-09-13T07:50:05.570Z,22.81
2018-09-13T07:52:34.529Z,23.14
2018-09-13T07:55:03.419Z,23.32
2018-09-13T07:57:32.318Z,23.44
2018-09-13T08:00:01.250Z,23.53
2018-09-13T08:02:30.223Z,23.08
2018-09-13T08:04:59.157Z,23.22
2018-09-13T08:07:27.954Z,24.30
2018-09-13T08:09:56.881Z,24.17
2018-09-13T08:12:25.783Z,24.27
2018-09-13T08:14:54.653Z,24.51
2018-09-13T08:17:23.975Z,23.70
2018-09-13T08:19:52.906Z,23.90
2018-09-13T08:22:21.856Z,24.65
2018-09-13T08:24:51.083Z,24.48
2018-09-13T08:27:20.063Z,24.24
2018-09-13T08:29:48.898Z,24.25
2018-09-13T08:32:18.108Z,24.83
2018-09-13T08:34:47.044Z,24.75
2018-09-13T08:37:16.010Z,25.69
2018-09-13T08:39:44.983Z,25.23
2018-09-13T08:42:13.789Z,25.51
2018-09-13T08:44:42.761Z,25.15
2018-09-13T08:47:11.961Z,25.23
2018-09-13T08:49:40.859Z,25.61
2018-09-13T08:52:09.796Z,25.95
2018-09-13T08:54:38.632Z,26.31
2018-09-13T08:57:07.622Z,25.51
2018-09-13T08:59:36.453Z,25.71
2018-09-13T09:02:05.789Z,26.11
2018-09-13T09:04:34.704Z,26.53
2018-09-13T09:07:03.568Z,26.82
2018-09-13T09:09:32.510Z,26.85
2018-09-13T09:12:01.530Z,26.65
2018-09-13T09:14:30.309Z,27.12
2018-09-13T09:16:59.568Z,26.77
2018-09-13T09:19:28.451Z,26.53
2018-09-13T09:21:57.547Z,26.39
2018-09-13T09:24:26.800Z,26.67
2018-09-13T09:26:55.672Z,27.21
2018-09-13T09:29:24.522Z,27.00
2018-09-13T09:31:53.774Z,27.07
2018-09-13T09:34:22.685Z,27.59
2018-09-13T09:36:51.494Z,27.61
2018-09-13T09:39:20.452Z,27.76
2018-09-13T09:41:49.282Z,27.72
2018-09-13T09:44:18.170Z,28.31
2018-09-13T09:46:46.997Z,28.80
2018-09-13T09:49:15.838Z,28.61
2018-09-13T09:51:44.822Z,28.90
2018-09-13T09:54:13.676Z,28.98
2018-09-13T09:56:42.497Z,28.53
2018-09-13T09:59:11.358Z,28.78
2018-09-13T10:01:45.291Z,27.98
2018-09-13T10:04:14.309Z,28.46
2018-09-13T10:06:43.197Z,28.01
2018-09-13T10:09:12.167Z,28.21
2018-09-13T10:11:41.000Z,28.02
2018-09-13T10:14:09.980Z,28.12
2018-09-13T10:17:43.617Z,27.86
2018-09-13T10:20:17.671Z,28.65
2018-09-13T10:22:52.056Z,28.97
2018-09-13T10:25:26.083Z,28.63
2018-09-13T10:28:00.061Z,28.43
2018-09-13T10:30:34.018Z,29.15
2018-09-13T10:33:08.536Z,29.11
2018-09-13T10:35:42.574Z,28.75
2018-09-13T10:38:16.904Z,29.18
2018-09-13T10:40:50.729Z,28.26
2018-09-13T10:43:24.707Z,28.29
2018-09-13T10:45:58.938Z,28.50
2018-09-13T10:48:29.171Z,28.99
2018-09-13T10:51:03.692Z,28.22
2018-09-13T10:54:10.876Z,27.90
2018-09-13T10:56:40.506Z,28.40
2018-09-13T10:59:09.383Z,28.52
2018-09-13T11:01:38.836Z,28.99
2018-09-13T11:04:08.274Z,29.37
2018-09-13T11:06:37.172Z,28.76
2018-09-13T11:09:06.752Z,29.07
2018-09-13T11:11:36.095Z,28.58
2018-09-13T11:14:12.128Z,28.68
2018-09-13T11:16:41.345Z,28.83
2018-09-13T11:19:10.217Z,29.00
2018-09-13T11:21:39.894Z,28.76
2018-09-13T11:24:09.689Z,28.69
2018-09-13T11:26:38.539Z,28.72
2018-09-13T11:29:07.384Z,28.80
2018-09-13T11:31:36.664Z,29.02
2018-09-13T11:34:05.590Z,29.62
2018-09-13T11:36:35.310Z,29.32
2018-09-13T11:39:06.287Z,29.33
2018-09-13T11:41:35.140Z,29.19
2018-09-13T11:44:03.944Z,29.54
2018-09-13T11:46:33.091Z,29.50
2018-09-13T11:49:01.887Z,29.36
2018-09-13T11:51:30.738Z,29.18
2018-09-13T11:53:59.891Z,29.14
2018-09-13T11:56:28.771Z,29.36
2018-09-13T11:58:57.635Z,29.75
2018-09-13T12:01:26.593Z,30.33
2018-09-13T12:03:55.458Z,29.72
2018-09-13T12:06:24.367Z,29.68
2018-09-13T12:08:53.534Z,29.36
2018-09-13T12:11:22.396Z,29.44
2018-09-13T12:13:51.221Z,29.60
2018-09-13T12:16:20.606Z,29.65
2018-09-13T12:18:49.605Z,29.20
2018-09-13T12:21:18.917Z,29.17
2018-09-13T12:23:48.146Z,29.42
2018-09-13T12:26:17.023Z,29.31
2018-09-13T12:28:45.872Z,29.35
2018-09-13T12:31:15.459Z,29.38
2018-09-13T12:33:44.417Z,29.33
2018-09-13T12:36:13.281Z,29.51
2018-09-13T12:38:42.211Z,29.38
2018-09-13T12:41:11.029Z,29.69
2018-09-13T12:43:39.848Z,29.58
2018-09-13T12:46:09.161Z,30.78
2018-09-13T12:48:38.164Z,30.75
2018-09-13T12:51:07.259Z,29.95
2018-09-13T12:53:36.643Z,29.73
2018-09-13T12:56:05.825Z,29.79
2018-09-13T12:58:34.940Z,30.24
2018-09-13T13:01:04.199Z,30.72
2018-09-13T13:03:33.101Z,30.50
2018-09-13T13:06:02.101Z,30.34
2018-09-13T13:08:31.515Z,29.96
2018-09-13T13:11:00.521Z,30.40
2018-09-13T13:13:29.456Z,29.56
2018-09-13T13:15:58.400Z,29.63
2018-09-13T13:18:27.387Z,29.81
2018-09-13T13:20:56.444Z,29.79
2018-09-13T13:23:25.770Z,29.77
2018-09-13T13:25:55.662Z,29.72
2018-09-13T13:28:24.569Z,29.56
2018-09-13T13:30:53.846Z,29.82
2018-09-13T13:33:22.731Z,30.47
2018-09-13T13:35:51.618Z,30.40
2018-09-13T13:38:20.858Z,30.72
2018-09-13T13:40:49.844Z,30.83
2018-09-13T13:43:19.315Z,30.26
2018-09-13T13:45:48.685Z,30.24
2018-09-13T13:48:17.661Z,30.06
2018-09-13T13:50:46.606Z,29.79
2018-09-13T13:53:15.533Z,29.84
2018-09-13T13:55:44.482Z,30.26
2018-09-13T13:58:13.564Z,29.58
2018-09-13T14:00:42.598Z,30.46
2018-09-13T14:03:11.626Z,31.04
2018-09-13T14:05:40.685Z,30.79
2018-09-13T14:08:10.026Z,30.73
2018-09-13T14:10:39.182Z,30.78
2018-09-13T14:13:08.224Z,30.43
2018-09-13T14:15:37.252Z,30.15
2018-09-13T14:18:06.647Z,30.58
2018-09-13T14:20:35.754Z,30.21
2018-09-13T14:23:05.152Z,30.07
2018-09-13T14:25:34.205Z,30.51
2018-09-13T14:28:03.281Z,30.78
2018-09-13T14:30:32.295Z,30.31
2018-09-13T14:33:01.309Z,30.23
2018-09-13T14:35:30.338Z,30.18
2018-09-13T14:37:59.455Z,30.03
2018-09-13T14:40:28.581Z,30.29
2018-09-13T14:42:57.643Z,30.43
2018-09-13T14:45:27.007Z,29.99
2018-09-13T14:47:56.052Z,29.99
2018-09-13T14:50:25.057Z,30.12
2018-09-13T14:52:54.433Z,29.79
2018-09-13T14:55:23.511Z,29.50
2018-09-13T14:57:52.536Z,29.65
2018-09-13T15:00:21.897Z,29.14
2018-09-13T15:02:50.960Z,29.63
2018-09-13T15:05:19.996Z,29.45
2018-09-13T15:07:49.494Z,29.32
2018-09-13T15:10:18.439Z,29.57
2018-09-13T15:12:47.689Z,29.30
2018-09-13T15:15:16.807Z,29.40
2018-09-13T15:17:45.835Z,29.93
2018-09-13T15:20:14.933Z,29.25
2018-09-13T15:22:44.448Z,29.75
2018-09-13T15:25:13.443Z,29.62
2018-09-13T15:27:42.367Z,28.41
2018-09-13T15:30:11.680Z,28.09
2018-09-13T15:32:40.715Z,27.83
2018-09-13T15:35:09.739Z,27.53
2018-09-13T15:37:39.080Z,27.35
2018-09-13T15:40:08.105Z,27.28
2018-09-13T15:42:37.149Z,28.14
2018-09-13T15:45:06.424Z,28.35
2018-09-13T15:47:35.443Z,28.02
2018-09-13T15:50:04.536Z,27.68
2018-09-13T15:52:33.868Z,27.41
2018-09-13T15:55:02.853Z,27.42
2018-09-13T15:57:31.977Z,27.24
2018-09-13T16:00:00.974Z,27.03
2018-09-13T16:02:30.035Z,27.32
2018-09-13T16:04:59.119Z,27.49
2018-09-13T16:07:28.164Z,27.61
2018-09-13T16:09:57.102Z,27.60
2018-09-13T16:12:27.179Z,27.60
2018-09-13T16:14:56.412Z,27.62
2018-09-13T16:17:25.468Z,27.57
2018-09-13T16:19:54.620Z,27.57
2018-09-13T16:22:23.966Z,27.62
2018-09-13T16:24:52.986Z,27.51
2018-09-13T16:27:22.140Z,27.48
2018-09-13T16:29:51.555Z,27.49
2018-09-13T16:32:22.725Z,27.49
2018-09-13T16:34:52.396Z,27.40
2018-09-13T16:37:26.452Z,27.23
2018-09-13T16:40:05.206Z,27.30
2018-09-13T16:42:42.144Z,27.20
2018-09-13T16:45:12.564Z,27.16
2018-09-13T16:47:46.845Z,26.98
2018-09-13T16:50:15.878Z,26.85
2018-09-13T16:52:44.813Z,26.72
2018-09-13T16:55:13.784Z,26.65
2018-09-13T16:57:43.068Z,26.45
2018-09-13T17:00:11.986Z,26.44
2018-09-13T17:02:40.981Z,26.76
2018-09-13T17:05:10.132Z,26.30
2018-09-13T17:07:39.176Z,25.56
2018-09-13T17:10:08.245Z,25.85
2018-09-13T17:12:37.417Z,25.44
2018-09-13T17:15:06.663Z,25.57
2018-09-13T17:17:35.568Z,25.63
2018-09-13T17:20:04.869Z,25.49
2018-09-13T17:22:33.817Z,25.36
2018-09-13T17:25:02.901Z,25.27
2018-09-13T17:27:32.332Z,25.07
2018-09-13T17:30:01.390Z,24.98
2018-09-13T17:32:30.395Z,25.16
2018-09-13T17:34:59.434Z,25.06
2018-09-13T17:37:28.390Z,25.09
2018-09-13T17:39:57.346Z,25.14
2018-09-13T17:42:26.453Z,25.11
2018-09-13T17:44:55.494Z,24.97
2018-09-13T17:47:24.411Z,25.01
2018-09-13T17:49:53.447Z,25.17
2018-09-13T17:52:22.439Z,25.14
2018-09-13T17:54:51.517Z,25.04
2018-09-13T17:57:20.468Z,24.86
2018-09-13T17:59:49.365Z,24.97
2018-09-13T18:02:18.324Z,25.02
2018-09-13T18:04:47.156Z,25.02
2018-09-13T18:07:16.068Z,25.04
2018-09-13T18:09:44.964Z,25.03
2018-09-13T18:12:13.861Z,24.91
2018-09-13T18:14:42.814Z,24.75
2018-09-13T18:17:11.643Z,24.87
2018-09-13T18:19:40.504Z,24.93
2018-09-13T18:22:09.330Z,24.75
2018-09-13T18:24:38.220Z,24.58
2018-09-13T18:27:07.084Z,24.55
2018-09-13T18:29:36.019Z,24.53
2018-09-13T18:32:04.954Z,24.53
2018-09-13T18:34:33.918Z,24.63
2018-09-13T18:37:02.853Z,24.52
2018-09-13T18:39:31.860Z,24.52
2018-09-13T18:42:00.805Z,24.70
2018-09-13T18:44:29.788Z,24.71
2018-09-13T18:46:58.691Z,24.63
2018-09-13T18:49:27.676Z,24.69
2018-09-13T18:51:56.707Z,24.56
2018-09-13T18:54:25.714Z,24.42
2018-09-13T18:56:54.947Z,24.19
2018-09-13T18:59:23.929Z,24.22
2018-09-13T19:01:52.795Z,24.23
2018-09-13T19:04:21.709Z,24.11
2018-09-13T19:06:50.799Z,24.38
2018-09-13T19:09:19.736Z,24.32
2018-09-13T19:11:48.607Z,24.28
2018-09-13T19:14:17.786Z,24.15
2018-09-13T19:16:46.767Z,24.22
2018-09-13T19:19:15.746Z,23.79
2018-09-13T19:21:44.708Z,23.76
2018-09-13T19:24:13.657Z,23.91
2018-09-13T19:26:42.594Z,23.68
2018-09-13T19:29:11.582Z,23.55
2018-09-13T19:31:40.585Z,23.41
2018-09-13T19:34:09.807Z,23.44
2018-09-13T19:36:38.819Z,23.63
2018-09-13T19:39:10.690Z,23.62
2018-09-13T19:41:39.899Z,23.41
2018-09-13T19:44:08.875Z,23.39
2018-09-13T19:46:37.872Z,23.40
2018-09-13T19:49:06.959Z,23.20
2018-09-13T19:51:35.942Z,23.04
2018-09-13T19:54:04.866Z,23.07
2018-09-13T19:56:33.775Z,23.06
2018-09-13T19:59:02.708Z,23.12
2018-09-13T20:01:31.546Z,23.13
2018-09-13T20:04:00.485Z,23.14
2018-09-13T20:06:29.335Z,22.85
2018-09-13T20:08:58.267Z,22.65
2018-09-13T20:11:27.186Z,22.73
2018-09-13T20:13:56.352Z,22.65
2018-09-13T20:16:25.226Z,22.60
2018-09-13T20:18:54.517Z,22.74
2018-09-13T20:21:23.446Z,22.73
2018-09-13T20:23:52.391Z,22.78
2018-09-13T20:26:21.313Z,22.80
2018-09-13T20:28:50.352Z,22.65
2018-09-13T20:31:19.199Z,22.68
2018-09-13T20:33:48.109Z,22.65
2018-09-13T20:36:16.981Z,22.76
2018-09-13T20:38:45.951Z,22.77
2018-09-13T20:41:14.893Z,22.79
2018-09-13T20:43:43.844Z,22.82
2018-09-13T20:46:13.154Z,22.90
2018-09-13T20:48:42.111Z,22.95
2018-09-13T20:51:11.027Z,23.07
2018-09-13T20:53:39.975Z,23.00
2018-09-13T20:56:08.836Z,23.09
2018-09-13T20:58:37.740Z,23.00
2018-09-13T21:01:06.698Z,23.01
2018-09-13T21:03:35.511Z,23.17
2018-09-13T21:06:04.457Z,23.08
2018-09-13T21:08:33.355Z,23.21
2018-09-13T21:11:02.210Z,23.16
2018-09-13T21:13:31.189Z,23.20
2018-09-13T21:16:00.123Z,23.22
2018-09-13T21:18:29.168Z,23.13
2018-09-13T21:20:58.043Z,23.21
2018-09-13T21:23:27.310Z,22.65
2018-09-13T21:25:56.388Z,22.45
2018-09-13T21:28:25.323Z,22.01
2018-09-13T21:30:54.353Z,21.89
2018-09-13T21:33:23.257Z,21.83
2018-09-13T21:35:52.208Z,21.77
2018-09-13T21:38:21.063Z,21.73
2018-09-13T21:40:49.952Z,21.76
2018-09-13T21:43:18.820Z,21.64
2018-09-13T21:45:47.724Z,21.80
2018-09-13T21:48:16.663Z,21.97
2018-09-13T21:50:45.663Z,22.13
2018-09-13T21:53:14.524Z,22.27
2018-09-13T21:55:44.107Z,22.34
2018-09-13T21:58:13.052Z,22.47
2018-09-13T22:00:41.945Z,22.54
2018-09-13T22:03:10.919Z,22.41
2018-09-13T22:05:39.753Z,22.46
2018-09-13T22:08:08.588Z,22.47
2018-09-13T22:10:37.519Z,22.34
2018-09-13T22:13:06.535Z,22.29
2018-09-13T22:15:35.571Z,22.26
2018-09-13T22:18:04.536Z,22.44
2018-09-13T22:20:33.516Z,22.34
2018-09-13T22:23:02.366Z,22.19
2018-09-13T22:25:31.464Z,21.92
2018-09-13T22:28:00.390Z,21.65
2018-09-13T22:30:29.197Z,21.88
2018-09-13T22:32:58.020Z,21.84
2018-09-13T22:35:26.922Z,21.69
2018-09-13T22:37:55.773Z,21.84
2018-09-13T22:40:24.694Z,21.88
2018-09-13T22:42:53.652Z,21.90
2018-09-13T22:45:22.470Z,21.74
2018-09-13T22:47:51.335Z,21.56
2018-09-13T22:50:20.184Z,21.36
2018-09-13T22:52:48.987Z,21.38
2018-09-13T22:55:17.868Z,21.46
2018-09-13T22:57:46.783Z,21.16
2018-09-13T23:00:15.766Z,20.96
2018-09-13T23:02:49.293Z,20.92
2018-09-13T23:05:19.245Z,20.60
2018-09-13T23:07:48.240Z,20.61
2018-09-13T23:10:17.577Z,20.88
2018-09-13T23:12:46.809Z,20.90
2018-09-13T23:15:15.784Z,20.81
2018-09-13T23:17:44.794Z,21.06
2018-09-13T23:20:13.931Z,20.97
2018-09-13T23:22:42.885Z,21.12
2018-09-13T23:25:11.786Z,21.16
2018-09-13T23:27:40.608Z,21.14
2018-09-13T23:30:09.533Z,21.25
2018-09-13T23:32:38.388Z,21.07
2018-09-13T23:35:07.352Z,21.07
2018-09-13T23:37:36.156Z,21.13
2018-09-13T23:40:05.119Z,21.33
2018-09-13T23:42:33.964Z,21.59
2018-09-13T23:45:02.842Z,21.50
2018-09-13T23:47:31.770Z,21.30
2018-09-13T23:50:00.698Z,21.14
2018-09-13T23:52:29.586Z,20.95
2018-09-13T23:54:58.400Z,21.01
2018-09-13T23:57:27.246Z,21.06
2018-09-13T23:59:56.057Z,21.01
